sensor_id;sensor_type;location;lat;lon;timestamp;P1;durP1;ratioP1;P2;durP2;ratioP2
71048;SDS011;58704;53.358;-6.238;2023-05-31T00:01:50;17.47;;;5.33;;
71048;SDS011;58704;53.358;-6.238;2023-05-31T00:04:16;15.68;;;5.75;;
71048;SDS011;58704;53.358;-6.238;2023-05-31T00:06:41;18.30;;;6.10;;
71048;SDS011;58704;53.358;-6.238;2023-05-31T00:09:06;13.10;;;5.23;;
71048;SDS011;58704;53.358;-6.238;2023-05-31T00:11:32;15.13;;;5.43;;
71048;SDS011;58704;53.358;-6.238;2023-05-31T00:13:57;12.53;;;5.63;;
71048;SDS011;58704;53.358;-6.238;2023-05-31T00:16:22;17.23;;;5.90;;
71048;SDS011;58704;53.358;-6.238;2023-05-31T00:18:48;15.57;;;6.20;;
71048;SDS011;58704;53.358;-6.238;2023-05-31T00:21:13;19.10;;;6.07;;
71048;SDS011;58704;53.358;-6.238;2023-05-31T00:23:39;16.43;;;6.17;;
71048;SDS011;58704;53.358;-6.238;2023-05-31T00:26:04;18.63;;;5.90;;
71048;SDS011;58704;53.358;-6.238;2023-05-31T00:28:30;13.20;;;5.20;;
71048;SDS011;58704;53.358;-6.238;2023-05-31T00:30:55;13.77;;;5.17;;
71048;SDS011;58704;53.358;-6.238;2023-05-31T00:33:20;16.83;;;5.63;;
71048;SDS011;58704;53.358;-6.238;2023-05-31T00:35:46;14.13;;;5.07;;
71048;SDS011;58704;53.358;-6.238;2023-05-31T00:38:11;14.50;;;5.35;;
71048;SDS011;58704;53.358;-6.238;2023-05-31T00:40:38;13.20;;;5.17;;
71048;SDS011;58704;53.358;-6.238;2023-05-31T00:43:04;14.45;;;5.25;;
71048;SDS011;58704;53.358;-6.238;2023-05-31T00:45:29;17.87;;;5.10;;
71048;SDS011;58704;53.358;-6.238;2023-05-31T00:47:55;12.77;;;5.23;;
71048;SDS011;58704;53.358;-6.238;2023-05-31T00:50:21;14.98;;;5.32;;
71048;SDS011;58704;53.358;-6.238;2023-05-31T00:52:47;15.48;;;5.75;;
71048;SDS011;58704;53.358;-6.238;2023-05-31T00:55:14;15.83;;;5.17;;
71048;SDS011;58704;53.358;-6.238;2023-05-31T00:57:40;12.60;;;4.97;;
71048;SDS011;58704;53.358;-6.238;2023-05-31T01:00:06;13.25;;;5.30;;
71048;SDS011;58704;53.358;-6.238;2023-05-31T01:02:33;14.23;;;5.07;;
71048;SDS011;58704;53.358;-6.238;2023-05-31T01:04:59;15.55;;;5.20;;
71048;SDS011;58704;53.358;-6.238;2023-05-31T01:07:25;11.45;;;5.40;;
71048;SDS011;58704;53.358;-6.238;2023-05-31T01:09:51;17.97;;;5.60;;
71048;SDS011;58704;53.358;-6.238;2023-05-31T01:15:09;15.30;;;5.45;;
71048;SDS011;58704;53.358;-6.238;2023-05-31T01:17:53;15.05;;;4.20;;
71048;SDS011;58704;53.358;-6.238;2023-05-31T01:20:26;12.27;;;4.50;;
71048;SDS011;58704;53.358;-6.238;2023-05-31T01:25:46;19.98;;;5.18;;
71048;SDS011;58704;53.358;-6.238;2023-05-31T01:28:44;16.88;;;5.65;;
71048;SDS011;58704;53.358;-6.238;2023-05-31T01:31:13;14.00;;;4.63;;
71048;SDS011;58704;53.358;-6.238;2023-05-31T01:33:39;12.23;;;4.57;;
71048;SDS011;58704;53.358;-6.238;2023-05-31T01:36:05;10.25;;;4.70;;
71048;SDS011;58704;53.358;-6.238;2023-05-31T01:38:31;11.00;;;4.63;;
71048;SDS011;58704;53.358;-6.238;2023-05-31T01:40:56;14.63;;;4.57;;
71048;SDS011;58704;53.358;-6.238;2023-05-31T01:43:23;13.50;;;4.40;;
71048;SDS011;58704;53.358;-6.238;2023-05-31T01:45:50;13.93;;;4.40;;
71048;SDS011;58704;53.358;-6.238;2023-05-31T01:48:16;10.68;;;4.50;;
71048;SDS011;58704;53.358;-6.238;2023-05-31T01:50:42;11.55;;;4.43;;
71048;SDS011;58704;53.358;-6.238;2023-05-31T01:53:08;14.17;;;4.97;;
71048;SDS011;58704;53.358;-6.238;2023-05-31T01:55:34;12.27;;;4.50;;
71048;SDS011;58704;53.358;-6.238;2023-05-31T01:57:59;10.63;;;4.40;;
71048;SDS011;58704;53.358;-6.238;2023-05-31T02:00:25;11.10;;;4.07;;
71048;SDS011;58704;53.358;-6.238;2023-05-31T02:02:51;13.50;;;3.63;;
71048;SDS011;58704;53.358;-6.238;2023-05-31T02:05:17;11.27;;;4.50;;
71048;SDS011;58704;53.358;-6.238;2023-05-31T02:07:44;9.25;;;3.78;;
71048;SDS011;58704;53.358;-6.238;2023-05-31T02:10:10;10.18;;;3.92;;
71048;SDS011;58704;53.358;-6.238;2023-05-31T02:12:36;7.47;;;3.73;;
71048;SDS011;58704;53.358;-6.238;2023-05-31T02:15:02;12.35;;;4.90;;
71048;SDS011;58704;53.358;-6.238;2023-05-31T02:17:29;14.82;;;5.57;;
71048;SDS011;58704;53.358;-6.238;2023-05-31T02:19:57;13.38;;;4.13;;
71048;SDS011;58704;53.358;-6.238;2023-05-31T02:22:23;10.17;;;4.30;;
71048;SDS011;58704;53.358;-6.238;2023-05-31T02:24:49;10.95;;;4.32;;
71048;SDS011;58704;53.358;-6.238;2023-05-31T02:27:14;9.57;;;4.20;;
71048;SDS011;58704;53.358;-6.238;2023-05-31T02:29:40;12.30;;;4.10;;
71048;SDS011;58704;53.358;-6.238;2023-05-31T02:32:05;14.35;;;4.22;;
71048;SDS011;58704;53.358;-6.238;2023-05-31T02:34:31;13.33;;;4.30;;
71048;SDS011;58704;53.358;-6.238;2023-05-31T02:36:58;9.52;;;3.83;;
71048;SDS011;58704;53.358;-6.238;2023-05-31T02:39:24;8.13;;;4.15;;
71048;SDS011;58704;53.358;-6.238;2023-05-31T02:41:50;9.63;;;3.90;;
71048;SDS011;58704;53.358;-6.238;2023-05-31T02:44:15;10.85;;;4.20;;
71048;SDS011;58704;53.358;-6.238;2023-05-31T02:46:40;11.13;;;4.50;;
71048;SDS011;58704;53.358;-6.238;2023-05-31T02:49:06;11.77;;;4.30;;
71048;SDS011;58704;53.358;-6.238;2023-05-31T02:51:32;11.73;;;4.10;;
71048;SDS011;58704;53.358;-6.238;2023-05-31T02:53:57;12.13;;;4.80;;
71048;SDS011;58704;53.358;-6.238;2023-05-31T02:56:23;9.65;;;4.40;;
71048;SDS011;58704;53.358;-6.238;2023-05-31T02:58:48;9.00;;;4.20;;
71048;SDS011;58704;53.358;-6.238;2023-05-31T03:01:14;7.33;;;3.60;;
71048;SDS011;58704;53.358;-6.238;2023-05-31T03:03:41;14.27;;;4.72;;
71048;SDS011;58704;53.358;-6.238;2023-05-31T03:06:06;11.90;;;4.10;;
71048;SDS011;58704;53.358;-6.238;2023-05-31T03:08:31;9.63;;;4.53;;
71048;SDS011;58704;53.358;-6.238;2023-05-31T03:10:57;14.73;;;4.67;;
71048;SDS011;58704;53.358;-6.238;2023-05-31T03:13:22;11.13;;;4.55;;
71048;SDS011;58704;53.358;-6.238;2023-05-31T03:15:48;10.30;;;4.00;;
71048;SDS011;58704;53.358;-6.238;2023-05-31T03:18:14;11.07;;;3.83;;
71048;SDS011;58704;53.358;-6.238;2023-05-31T03:20:39;11.25;;;3.97;;
71048;SDS011;58704;53.358;-6.238;2023-05-31T03:23:05;6.73;;;3.83;;
71048;SDS011;58704;53.358;-6.238;2023-05-31T03:25:32;11.20;;;4.32;;
71048;SDS011;58704;53.358;-6.238;2023-05-31T03:27:57;9.85;;;4.43;;
71048;SDS011;58704;53.358;-6.238;2023-05-31T03:30:23;10.03;;;4.00;;
71048;SDS011;58704;53.358;-6.238;2023-05-31T03:32:48;8.17;;;3.77;;
71048;SDS011;58704;53.358;-6.238;2023-05-31T03:35:14;10.50;;;4.60;;
71048;SDS011;58704;53.358;-6.238;2023-05-31T03:37:39;10.23;;;4.15;;
71048;SDS011;58704;53.358;-6.238;2023-05-31T03:40:05;7.57;;;4.17;;
71048;SDS011;58704;53.358;-6.238;2023-05-31T03:42:31;8.82;;;3.78;;
71048;SDS011;58704;53.358;-6.238;2023-05-31T03:44:57;16.47;;;5.10;;
71048;SDS011;58704;53.358;-6.238;2023-05-31T03:47:22;12.98;;;4.40;;
71048;SDS011;58704;53.358;-6.238;2023-05-31T03:49:48;14.13;;;4.00;;
71048;SDS011;58704;53.358;-6.238;2023-05-31T03:52:13;10.57;;;4.45;;
71048;SDS011;58704;53.358;-6.238;2023-05-31T03:54:40;9.00;;;4.23;;
71048;SDS011;58704;53.358;-6.238;2023-05-31T03:57:05;13.00;;;4.55;;
71048;SDS011;58704;53.358;-6.238;2023-05-31T03:59:31;10.95;;;4.25;;
71048;SDS011;58704;53.358;-6.238;2023-05-31T04:01:58;11.13;;;4.37;;
71048;SDS011;58704;53.358;-6.238;2023-05-31T04:04:24;12.90;;;4.68;;
71048;SDS011;58704;53.358;-6.238;2023-05-31T04:06:49;11.00;;;4.20;;
71048;SDS011;58704;53.358;-6.238;2023-05-31T04:09:15;8.67;;;4.00;;
71048;SDS011;58704;53.358;-6.238;2023-05-31T04:11:40;10.67;;;3.80;;
71048;SDS011;58704;53.358;-6.238;2023-05-31T04:14:05;11.83;;;4.20;;
71048;SDS011;58704;53.358;-6.238;2023-05-31T04:16:31;12.32;;;4.63;;
71048;SDS011;58704;53.358;-6.238;2023-05-31T04:18:56;14.07;;;4.70;;
71048;SDS011;58704;53.358;-6.238;2023-05-31T04:21:21;12.60;;;5.03;;
71048;SDS011;58704;53.358;-6.238;2023-05-31T04:23:47;8.13;;;4.60;;
71048;SDS011;58704;53.358;-6.238;2023-05-31T04:26:12;10.73;;;4.47;;
71048;SDS011;58704;53.358;-6.238;2023-05-31T04:28:43;13.75;;;4.50;;
71048;SDS011;58704;53.358;-6.238;2023-05-31T04:31:09;12.35;;;4.43;;
71048;SDS011;58704;53.358;-6.238;2023-05-31T04:33:35;8.85;;;4.28;;
71048;SDS011;58704;53.358;-6.238;2023-05-31T04:36:01;11.63;;;4.10;;
71048;SDS011;58704;53.358;-6.238;2023-05-31T04:38:28;9.48;;;4.70;;
71048;SDS011;58704;53.358;-6.238;2023-05-31T04:40:55;11.50;;;4.63;;
71048;SDS011;58704;53.358;-6.238;2023-05-31T04:43:22;14.25;;;5.22;;
71048;SDS011;58704;53.358;-6.238;2023-05-31T04:45:50;11.50;;;4.10;;
71048;SDS011;58704;53.358;-6.238;2023-05-31T04:48:16;10.20;;;4.25;;
71048;SDS011;58704;53.358;-6.238;2023-05-31T04:50:42;11.13;;;4.97;;
71048;SDS011;58704;53.358;-6.238;2023-05-31T04:53:09;9.68;;;4.43;;
71048;SDS011;58704;53.358;-6.238;2023-05-31T04:55:35;11.65;;;4.95;;
71048;SDS011;58704;53.358;-6.238;2023-05-31T04:58:00;19.53;;;4.90;;
71048;SDS011;58704;53.358;-6.238;2023-05-31T05:00:26;13.43;;;6.27;;
71048;SDS011;58704;53.358;-6.238;2023-05-31T05:02:51;10.43;;;4.70;;
71048;SDS011;58704;53.358;-6.238;2023-05-31T05:05:17;15.77;;;5.10;;
71048;SDS011;58704;53.358;-6.238;2023-05-31T05:07:42;15.93;;;5.83;;
71048;SDS011;58704;53.358;-6.238;2023-05-31T05:10:08;12.50;;;4.60;;
71048;SDS011;58704;53.358;-6.238;2023-05-31T05:12:33;11.15;;;5.32;;
71048;SDS011;58704;53.358;-6.238;2023-05-31T05:14:59;13.53;;;4.97;;
71048;SDS011;58704;53.358;-6.238;2023-05-31T05:17:24;22.70;;;6.37;;
71048;SDS011;58704;53.358;-6.238;2023-05-31T05:19:50;12.20;;;4.60;;
71048;SDS011;58704;53.358;-6.238;2023-05-31T05:22:15;17.70;;;4.37;;
71048;SDS011;58704;53.358;-6.238;2023-05-31T05:24:41;13.35;;;4.97;;
71048;SDS011;58704;53.358;-6.238;2023-05-31T05:27:06;11.50;;;5.27;;
71048;SDS011;58704;53.358;-6.238;2023-05-31T05:29:32;19.15;;;5.22;;
71048;SDS011;58704;53.358;-6.238;2023-05-31T05:31:58;14.70;;;4.67;;
71048;SDS011;58704;53.358;-6.238;2023-05-31T05:34:24;17.17;;;5.20;;
71048;SDS011;58704;53.358;-6.238;2023-05-31T05:36:49;10.90;;;4.40;;
71048;SDS011;58704;53.358;-6.238;2023-05-31T05:39:16;13.50;;;5.00;;
71048;SDS011;58704;53.358;-6.238;2023-05-31T05:41:42;11.77;;;4.57;;
71048;SDS011;58704;53.358;-6.238;2023-05-31T05:44:07;13.07;;;4.87;;
71048;SDS011;58704;53.358;-6.238;2023-05-31T05:46:33;17.52;;;5.53;;
71048;SDS011;58704;53.358;-6.238;2023-05-31T05:48:58;17.00;;;6.13;;
71048;SDS011;58704;53.358;-6.238;2023-05-31T05:51:23;20.10;;;5.50;;
71048;SDS011;58704;53.358;-6.238;2023-05-31T05:53:49;17.73;;;5.45;;
71048;SDS011;58704;53.358;-6.238;2023-05-31T05:56:15;16.83;;;5.30;;
71048;SDS011;58704;53.358;-6.238;2023-05-31T05:58:43;13.52;;;5.57;;
71048;SDS011;58704;53.358;-6.238;2023-05-31T06:01:09;17.07;;;5.97;;
71048;SDS011;58704;53.358;-6.238;2023-05-31T06:03:37;15.32;;;5.85;;
71048;SDS011;58704;53.358;-6.238;2023-05-31T06:06:03;14.52;;;5.60;;
71048;SDS011;58704;53.358;-6.238;2023-05-31T06:08:28;11.23;;;6.23;;
71048;SDS011;58704;53.358;-6.238;2023-05-31T06:10:53;15.20;;;6.00;;
71048;SDS011;58704;53.358;-6.238;2023-05-31T06:13:19;16.40;;;6.33;;
71048;SDS011;58704;53.358;-6.238;2023-05-31T06:15:44;11.50;;;6.00;;
71048;SDS011;58704;53.358;-6.238;2023-05-31T06:18:09;14.20;;;6.20;;
71048;SDS011;58704;53.358;-6.238;2023-05-31T06:20:35;12.40;;;5.90;;
71048;SDS011;58704;53.358;-6.238;2023-05-31T06:23:00;16.33;;;5.73;;
71048;SDS011;58704;53.358;-6.238;2023-05-31T06:25:26;14.90;;;6.17;;
71048;SDS011;58704;53.358;-6.238;2023-05-31T06:27:51;13.38;;;5.35;;
71048;SDS011;58704;53.358;-6.238;2023-05-31T06:30:17;10.37;;;5.53;;
71048;SDS011;58704;53.358;-6.238;2023-05-31T06:32:42;16.97;;;5.90;;
71048;SDS011;58704;53.358;-6.238;2023-05-31T06:35:08;12.00;;;5.07;;
71048;SDS011;58704;53.358;-6.238;2023-05-31T06:37:33;13.67;;;5.80;;
71048;SDS011;58704;53.358;-6.238;2023-05-31T06:39:59;20.97;;;6.10;;
71048;SDS011;58704;53.358;-6.238;2023-05-31T06:42:25;11.00;;;6.00;;
71048;SDS011;58704;53.358;-6.238;2023-05-31T06:44:51;18.35;;;5.90;;
71048;SDS011;58704;53.358;-6.238;2023-05-31T06:47:16;13.93;;;5.40;;
71048;SDS011;58704;53.358;-6.238;2023-05-31T06:49:42;13.87;;;5.83;;
71048;SDS011;58704;53.358;-6.238;2023-05-31T06:52:08;21.73;;;6.35;;
71048;SDS011;58704;53.358;-6.238;2023-05-31T06:54:34;20.63;;;6.20;;
71048;SDS011;58704;53.358;-6.238;2023-05-31T06:57:01;13.53;;;6.10;;
71048;SDS011;58704;53.358;-6.238;2023-05-31T06:59:27;12.73;;;5.72;;
71048;SDS011;58704;53.358;-6.238;2023-05-31T07:01:53;11.97;;;5.40;;
71048;SDS011;58704;53.358;-6.238;2023-05-31T07:04:19;13.57;;;5.53;;
71048;SDS011;58704;53.358;-6.238;2023-05-31T07:06:46;15.05;;;5.90;;
71048;SDS011;58704;53.358;-6.238;2023-05-31T07:09:12;17.33;;;6.10;;
71048;SDS011;58704;53.358;-6.238;2023-05-31T07:11:40;12.77;;;5.73;;
71048;SDS011;58704;53.358;-6.238;2023-05-31T07:14:06;19.38;;;6.13;;
71048;SDS011;58704;53.358;-6.238;2023-05-31T07:16:31;11.43;;;5.20;;
71048;SDS011;58704;53.358;-6.238;2023-05-31T07:18:57;13.68;;;5.78;;
71048;SDS011;58704;53.358;-6.238;2023-05-31T07:21:22;14.70;;;5.67;;
71048;SDS011;58704;53.358;-6.238;2023-05-31T07:23:48;19.17;;;5.63;;
71048;SDS011;58704;53.358;-6.238;2023-05-31T07:26:14;12.53;;;5.77;;
71048;SDS011;58704;53.358;-6.238;2023-05-31T07:28:43;14.90;;;5.13;;
71048;SDS011;58704;53.358;-6.238;2023-05-31T07:31:09;16.13;;;5.97;;
71048;SDS011;58704;53.358;-6.238;2023-05-31T07:33:34;15.00;;;5.13;;
71048;SDS011;58704;53.358;-6.238;2023-05-31T07:36:00;10.37;;;5.33;;
71048;SDS011;58704;53.358;-6.238;2023-05-31T07:38:26;13.27;;;5.13;;
71048;SDS011;58704;53.358;-6.238;2023-05-31T07:40:51;12.75;;;5.97;;
71048;SDS011;58704;53.358;-6.238;2023-05-31T07:43:17;11.93;;;5.07;;
71048;SDS011;58704;53.358;-6.238;2023-05-31T07:45:46;14.85;;;5.72;;
71048;SDS011;58704;53.358;-6.238;2023-05-31T07:48:16;15.65;;;5.28;;
71048;SDS011;58704;53.358;-6.238;2023-05-31T07:50:41;17.27;;;6.10;;
71048;SDS011;58704;53.358;-6.238;2023-05-31T07:53:07;15.17;;;5.57;;
71048;SDS011;58704;53.358;-6.238;2023-05-31T07:55:32;15.97;;;5.77;;
71048;SDS011;58704;53.358;-6.238;2023-05-31T07:57:58;12.90;;;5.27;;
71048;SDS011;58704;53.358;-6.238;2023-05-31T08:00:23;23.42;;;5.25;;
71048;SDS011;58704;53.358;-6.238;2023-05-31T08:02:49;13.60;;;5.10;;
71048;SDS011;58704;53.358;-6.238;2023-05-31T08:05:15;12.13;;;5.20;;
71048;SDS011;58704;53.358;-6.238;2023-05-31T08:07:40;14.80;;;5.20;;
71048;SDS011;58704;53.358;-6.238;2023-05-31T08:10:05;18.97;;;5.87;;
71048;SDS011;58704;53.358;-6.238;2023-05-31T08:12:31;12.05;;;5.25;;
71048;SDS011;58704;53.358;-6.238;2023-05-31T08:14:57;11.83;;;4.93;;
71048;SDS011;58704;53.358;-6.238;2023-05-31T08:17:23;12.57;;;4.80;;
71048;SDS011;58704;53.358;-6.238;2023-05-31T08:19:48;10.60;;;4.90;;
71048;SDS011;58704;53.358;-6.238;2023-05-31T08:22:13;11.30;;;4.83;;
71048;SDS011;58704;53.358;-6.238;2023-05-31T08:24:39;17.30;;;5.53;;
71048;SDS011;58704;53.358;-6.238;2023-05-31T08:27:05;10.60;;;5.07;;
71048;SDS011;58704;53.358;-6.238;2023-05-31T08:29:30;15.20;;;5.30;;
71048;SDS011;58704;53.358;-6.238;2023-05-31T08:31:56;14.57;;;5.43;;
71048;SDS011;58704;53.358;-6.238;2023-05-31T08:34:21;10.83;;;4.87;;
71048;SDS011;58704;53.358;-6.238;2023-05-31T08:36:47;12.60;;;5.23;;
71048;SDS011;58704;53.358;-6.238;2023-05-31T08:39:12;17.75;;;5.50;;
71048;SDS011;58704;53.358;-6.238;2023-05-31T08:41:50;13.93;;;4.80;;
71048;SDS011;58704;53.358;-6.238;2023-05-31T08:44:19;8.63;;;4.70;;
71048;SDS011;58704;53.358;-6.238;2023-05-31T08:46:46;10.23;;;4.72;;
71048;SDS011;58704;53.358;-6.238;2023-05-31T08:49:13;11.57;;;4.55;;
71048;SDS011;58704;53.358;-6.238;2023-05-31T08:51:41;14.00;;;4.78;;
71048;SDS011;58704;53.358;-6.238;2023-05-31T08:54:08;15.95;;;4.30;;
71048;SDS011;58704;53.358;-6.238;2023-05-31T08:56:35;14.93;;;5.03;;
71048;SDS011;58704;53.358;-6.238;2023-05-31T08:59:02;11.82;;;5.15;;
71048;SDS011;58704;53.358;-6.238;2023-05-31T09:01:28;11.48;;;5.13;;
71048;SDS011;58704;53.358;-6.238;2023-05-31T09:03:53;10.67;;;5.50;;
71048;SDS011;58704;53.358;-6.238;2023-05-31T09:06:19;10.00;;;5.17;;
71048;SDS011;58704;53.358;-6.238;2023-05-31T09:08:45;12.20;;;5.07;;
71048;SDS011;58704;53.358;-6.238;2023-05-31T09:11:12;12.70;;;5.30;;
71048;SDS011;58704;53.358;-6.238;2023-05-31T09:13:38;19.07;;;5.60;;
71048;SDS011;58704;53.358;-6.238;2023-05-31T09:16:03;17.27;;;5.50;;
71048;SDS011;58704;53.358;-6.238;2023-05-31T09:18:35;16.88;;;5.50;;
71048;SDS011;58704;53.358;-6.238;2023-05-31T09:21:06;9.00;;;5.17;;
71048;SDS011;58704;53.358;-6.238;2023-05-31T09:23:36;12.60;;;5.43;;
71048;SDS011;58704;53.358;-6.238;2023-05-31T09:26:02;17.70;;;5.38;;
71048;SDS011;58704;53.358;-6.238;2023-05-31T09:28:30;15.43;;;5.03;;
71048;SDS011;58704;53.358;-6.238;2023-05-31T09:31:06;12.27;;;5.30;;
71048;SDS011;58704;53.358;-6.238;2023-05-31T09:33:39;11.55;;;5.70;;
71048;SDS011;58704;53.358;-6.238;2023-05-31T09:36:06;10.97;;;5.73;;
71048;SDS011;58704;53.358;-6.238;2023-05-31T09:38:32;15.40;;;6.00;;
71048;SDS011;58704;53.358;-6.238;2023-05-31T09:41:14;13.23;;;5.50;;
71048;SDS011;58704;53.358;-6.238;2023-05-31T09:43:41;19.07;;;6.43;;
71048;SDS011;58704;53.358;-6.238;2023-05-31T09:46:11;10.82;;;5.10;;
71048;SDS011;58704;53.358;-6.238;2023-05-31T09:48:59;12.80;;;5.10;;
71048;SDS011;58704;53.358;-6.238;2023-05-31T09:51:28;11.70;;;5.57;;
71048;SDS011;58704;53.358;-6.238;2023-05-31T09:53:57;13.75;;;5.72;;
71048;SDS011;58704;53.358;-6.238;2023-05-31T09:56:23;9.93;;;5.97;;
71048;SDS011;58704;53.358;-6.238;2023-05-31T09:58:51;19.38;;;6.68;;
71048;SDS011;58704;53.358;-6.238;2023-05-31T10:01:17;12.35;;;5.68;;
71048;SDS011;58704;53.358;-6.238;2023-05-31T10:03:44;12.45;;;5.57;;
71048;SDS011;58704;53.358;-6.238;2023-05-31T10:06:09;11.33;;;5.57;;
71048;SDS011;58704;53.358;-6.238;2023-05-31T10:08:37;9.55;;;5.20;;
71048;SDS011;58704;53.358;-6.238;2023-05-31T10:11:02;16.58;;;5.75;;
71048;SDS011;58704;53.358;-6.238;2023-05-31T10:13:28;15.70;;;6.30;;
71048;SDS011;58704;53.358;-6.238;2023-05-31T10:15:55;11.37;;;5.47;;
71048;SDS011;58704;53.358;-6.238;2023-05-31T10:18:25;15.35;;;6.30;;
71048;SDS011;58704;53.358;-6.238;2023-05-31T10:20:55;13.02;;;5.60;;
71048;SDS011;58704;53.358;-6.238;2023-05-31T10:23:24;11.60;;;5.57;;
71048;SDS011;58704;53.358;-6.238;2023-05-31T10:28:24;9.83;;;5.67;;
71048;SDS011;58704;53.358;-6.238;2023-05-31T10:30:55;19.30;;;6.53;;
71048;SDS011;58704;53.358;-6.238;2023-05-31T10:33:22;11.68;;;5.22;;
71048;SDS011;58704;53.358;-6.238;2023-05-31T10:35:50;15.30;;;4.97;;
71048;SDS011;58704;53.358;-6.238;2023-05-31T10:38:16;9.50;;;4.90;;
71048;SDS011;58704;53.358;-6.238;2023-05-31T10:40:47;6.82;;;4.38;;
71048;SDS011;58704;53.358;-6.238;2023-05-31T10:46:00;12.83;;;4.57;;
71048;SDS011;58704;53.358;-6.238;2023-05-31T10:51:01;10.30;;;5.18;;
71048;SDS011;58704;53.358;-6.238;2023-05-31T10:53:28;11.10;;;4.90;;
71048;SDS011;58704;53.358;-6.238;2023-05-31T10:56:00;11.88;;;4.55;;
71048;SDS011;58704;53.358;-6.238;2023-05-31T10:58:51;11.10;;;4.77;;
71048;SDS011;58704;53.358;-6.238;2023-05-31T11:01:18;13.43;;;4.35;;
71048;SDS011;58704;53.358;-6.238;2023-05-31T11:06:15;12.73;;;4.70;;
71048;SDS011;58704;53.358;-6.238;2023-05-31T11:08:57;10.38;;;4.18;;
71048;SDS011;58704;53.358;-6.238;2023-05-31T11:13:58;12.38;;;4.60;;
71048;SDS011;58704;53.358;-6.238;2023-05-31T11:16:31;11.13;;;4.72;;
71048;SDS011;58704;53.358;-6.238;2023-05-31T11:19:07;13.13;;;4.68;;
71048;SDS011;58704;53.358;-6.238;2023-05-31T11:21:49;11.55;;;4.53;;
71048;SDS011;58704;53.358;-6.238;2023-05-31T11:26:58;9.35;;;4.60;;
71048;SDS011;58704;53.358;-6.238;2023-05-31T11:29:32;9.88;;;4.43;;
71048;SDS011;58704;53.358;-6.238;2023-05-31T11:37:19;9.60;;;4.47;;
71048;SDS011;58704;53.358;-6.238;2023-05-31T11:39:46;7.97;;;4.63;;
71048;SDS011;58704;53.358;-6.238;2023-05-31T11:42:11;7.93;;;4.00;;
71048;SDS011;58704;53.358;-6.238;2023-05-31T11:44:42;9.85;;;4.93;;
71048;SDS011;58704;53.358;-6.238;2023-05-31T11:47:10;10.65;;;4.90;;
71048;SDS011;58704;53.358;-6.238;2023-05-31T11:49:43;10.18;;;5.00;;
71048;SDS011;58704;53.358;-6.238;2023-05-31T11:52:09;12.93;;;5.10;;
71048;SDS011;58704;53.358;-6.238;2023-05-31T11:54:39;8.15;;;5.38;;
71048;SDS011;58704;53.358;-6.238;2023-05-31T11:57:08;10.80;;;4.20;;
71048;SDS011;58704;53.358;-6.238;2023-05-31T11:59:34;11.90;;;4.80;;
71048;SDS011;58704;53.358;-6.238;2023-05-31T12:02:03;11.67;;;5.77;;
71048;SDS011;58704;53.358;-6.238;2023-05-31T12:04:50;10.63;;;5.82;;
71048;SDS011;58704;53.358;-6.238;2023-05-31T12:07:15;14.15;;;6.25;;
71048;SDS011;58704;53.358;-6.238;2023-05-31T12:09:47;13.57;;;5.47;;
71048;SDS011;58704;53.358;-6.238;2023-05-31T12:12:12;7.60;;;5.53;;
71048;SDS011;58704;53.358;-6.238;2023-05-31T12:14:42;9.73;;;4.77;;
71048;SDS011;58704;53.358;-6.238;2023-05-31T12:17:14;11.07;;;5.35;;
71048;SDS011;58704;53.358;-6.238;2023-05-31T12:19:40;7.50;;;5.10;;
71048;SDS011;58704;53.358;-6.238;2023-05-31T12:22:05;10.33;;;5.20;;
71048;SDS011;58704;53.358;-6.238;2023-05-31T12:24:31;9.90;;;5.40;;
71048;SDS011;58704;53.358;-6.238;2023-05-31T12:26:56;6.90;;;5.07;;
71048;SDS011;58704;53.358;-6.238;2023-05-31T12:29:25;11.10;;;5.63;;
71048;SDS011;58704;53.358;-6.238;2023-05-31T12:31:59;10.02;;;5.07;;
71048;SDS011;58704;53.358;-6.238;2023-05-31T12:34:28;10.70;;;5.70;;
71048;SDS011;58704;53.358;-6.238;2023-05-31T12:36:55;13.23;;;6.75;;
71048;SDS011;58704;53.358;-6.238;2023-05-31T12:39:21;12.77;;;5.87;;
71048;SDS011;58704;53.358;-6.238;2023-05-31T12:41:50;13.40;;;6.28;;
71048;SDS011;58704;53.358;-6.238;2023-05-31T12:44:22;11.23;;;6.80;;
71048;SDS011;58704;53.358;-6.238;2023-05-31T12:46:48;8.53;;;6.00;;
71048;SDS011;58704;53.358;-6.238;2023-05-31T12:51:44;11.13;;;6.00;;
71048;SDS011;58704;53.358;-6.238;2023-05-31T12:54:13;12.23;;;6.53;;
71048;SDS011;58704;53.358;-6.238;2023-05-31T12:56:42;15.73;;;7.13;;
71048;SDS011;58704;53.358;-6.238;2023-05-31T12:59:08;17.95;;;7.57;;
71048;SDS011;58704;53.358;-6.238;2023-05-31T13:01:34;11.83;;;7.07;;
71048;SDS011;58704;53.358;-6.238;2023-05-31T13:04:00;12.83;;;7.20;;
71048;SDS011;58704;53.358;-6.238;2023-05-31T13:06:27;15.95;;;8.15;;
71048;SDS011;58704;53.358;-6.238;2023-05-31T13:08:52;15.55;;;7.03;;
71048;SDS011;58704;53.358;-6.238;2023-05-31T13:11:18;13.33;;;7.43;;
71048;SDS011;58704;53.358;-6.238;2023-05-31T13:13:43;14.03;;;7.07;;
71048;SDS011;58704;53.358;-6.238;2023-05-31T13:16:09;10.37;;;7.03;;
71048;SDS011;58704;53.358;-6.238;2023-05-31T13:18:34;12.07;;;7.13;;
71048;SDS011;58704;53.358;-6.238;2023-05-31T13:21:00;17.57;;;7.13;;
71048;SDS011;58704;53.358;-6.238;2023-05-31T13:23:25;13.93;;;7.00;;
71048;SDS011;58704;53.358;-6.238;2023-05-31T13:25:50;10.83;;;6.10;;
71048;SDS011;58704;53.358;-6.238;2023-05-31T13:28:16;14.38;;;6.82;;
71048;SDS011;58704;53.358;-6.238;2023-05-31T13:30:42;12.43;;;6.40;;
71048;SDS011;58704;53.358;-6.238;2023-05-31T13:33:07;13.45;;;6.35;;
71048;SDS011;58704;53.358;-6.238;2023-05-31T13:35:33;15.93;;;6.30;;
71048;SDS011;58704;53.358;-6.238;2023-05-31T13:38:00;12.68;;;6.40;;
71048;SDS011;58704;53.358;-6.238;2023-05-31T13:40:25;11.90;;;6.37;;
71048;SDS011;58704;53.358;-6.238;2023-05-31T13:42:51;12.90;;;7.10;;
71048;SDS011;58704;53.358;-6.238;2023-05-31T13:45:16;9.23;;;5.90;;
71048;SDS011;58704;53.358;-6.238;2023-05-31T13:47:41;15.67;;;6.80;;
71048;SDS011;58704;53.358;-6.238;2023-05-31T13:50:07;12.93;;;6.33;;
71048;SDS011;58704;53.358;-6.238;2023-05-31T13:52:32;8.55;;;5.47;;
71048;SDS011;58704;53.358;-6.238;2023-05-31T13:54:58;9.27;;;5.30;;
71048;SDS011;58704;53.358;-6.238;2023-05-31T13:57:24;13.90;;;6.13;;
71048;SDS011;58704;53.358;-6.238;2023-05-31T13:59:50;12.17;;;6.17;;
71048;SDS011;58704;53.358;-6.238;2023-05-31T14:02:16;10.57;;;5.82;;
71048;SDS011;58704;53.358;-6.238;2023-05-31T14:04:42;12.37;;;5.37;;
71048;SDS011;58704;53.358;-6.238;2023-05-31T14:07:07;15.10;;;6.57;;
71048;SDS011;58704;53.358;-6.238;2023-05-31T14:09:33;11.18;;;5.90;;
71048;SDS011;58704;53.358;-6.238;2023-05-31T14:11:58;12.20;;;5.70;;
71048;SDS011;58704;53.358;-6.238;2023-05-31T14:14:24;7.77;;;5.73;;
71048;SDS011;58704;53.358;-6.238;2023-05-31T14:16:50;9.85;;;5.50;;
71048;SDS011;58704;53.358;-6.238;2023-05-31T14:19:17;10.60;;;6.25;;
71048;SDS011;58704;53.358;-6.238;2023-05-31T14:21:43;14.90;;;6.33;;
71048;SDS011;58704;53.358;-6.238;2023-05-31T14:24:08;7.20;;;5.63;;
71048;SDS011;58704;53.358;-6.238;2023-05-31T14:26:33;10.63;;;6.13;;
71048;SDS011;58704;53.358;-6.238;2023-05-31T14:28:59;9.10;;;6.20;;
71048;SDS011;58704;53.358;-6.238;2023-05-31T14:31:24;10.27;;;6.03;;
71048;SDS011;58704;53.358;-6.238;2023-05-31T14:33:50;9.93;;;6.15;;
71048;SDS011;58704;53.358;-6.238;2023-05-31T14:36:16;11.33;;;5.70;;
71048;SDS011;58704;53.358;-6.238;2023-05-31T14:38:41;10.30;;;6.20;;
71048;SDS011;58704;53.358;-6.238;2023-05-31T14:41:07;10.90;;;6.03;;
71048;SDS011;58704;53.358;-6.238;2023-05-31T14:43:32;11.33;;;6.37;;
71048;SDS011;58704;53.358;-6.238;2023-05-31T14:45:57;11.25;;;6.38;;
71048;SDS011;58704;53.358;-6.238;2023-05-31T14:48:24;9.83;;;6.50;;
71048;SDS011;58704;53.358;-6.238;2023-05-31T14:50:50;11.30;;;5.97;;